Time;durP1;ratioP1;P1;durP2;ratioP2;P2;SDS_P1;SDS_P2;PMS_P1;PMS_P2;Temp;Humidity;BMP_temperature;BMP_pressure;BME280_temperature;BME280_humidity;BME280_pressure;Samples;Min_cycle;Max_cycle;Signal;HPM_P1;HPM_P2
2022/10/27 00:02:14;;;;;;;0.10;0.10;;;;;;;13.05;100.00;102073.13;5000644;28;20057;-69
2022/10/27 00:04:39;;;;;;;0.10;0.10;;;;;;;13.12;100.00;102087.88;4994676;28;20104;-69
2022/10/27 00:07:05;;;;;;;0.00;0.00;;;;;;;13.12;100.00;102085.19;5001469;28;20026;-69
2022/10/27 00:09:30;;;;;;;0.00;0.00;;;;;;;13.00;100.00;102088.72;4998420;28;20483;-70
2022/10/27 00:11:55;;;;;;;0.10;0.10;;;;;;;13.27;100.00;102087.78;4981628;28;20029;-68
2022/10/27 00:14:21;;;;;;;0.08;0.08;;;;;;;13.10;100.00;102072.78;4999299;28;20053;-70
2022/10/27 00:16:54;;;;;;;0.10;0.10;;;;;;;13.16;100.00;102077.75;5001443;28;20029;-71
2022/10/27 00:19:20;;;;;;;0.10;0.10;;;;;;;13.15;100.00;102082.28;5000404;28;20034;-70
2022/10/27 00:21:46;;;;;;;0.10;0.10;;;;;;;13.10;100.00;102076.34;4997974;28;20034;-70
2022/10/27 00:24:11;;;;;;;0.10;0.10;;;;;;;13.09;100.00;102079.16;4995422;28;20037;-72
2022/10/27 00:26:36;;;;;;;0.00;0.00;;;;;;;13.12;100.00;102084.31;4979807;28;20030;-71
2022/10/27 00:29:02;;;;;;;0.10;0.10;;;;;;;13.20;100.00;102095.47;5002869;28;20030;-71
2022/10/27 00:31:27;;;;;;;0.00;0.00;;;;;;;12.99;100.00;102078.91;4999887;28;20061;-69
2022/10/27 00:33:52;;;;;;;0.00;0.00;;;;;;;13.06;100.00;102093.72;4981526;28;20056;-71
2022/10/27 00:36:20;;;;;;;0.10;0.10;;;;;;;13.19;100.00;102099.97;4995206;28;20038;-71
2022/10/27 00:38:45;;;;;;;0.10;0.10;;;;;;;13.14;100.00;102085.09;4998293;28;20053;-70
2022/10/27 00:41:31;;;;;;;0.10;0.10;;;;;;;13.29;100.00;102099.34;5002624;28;20748;-70
2022/10/27 00:43:58;;;;;;;0.10;0.10;;;;;;;13.20;100.00;102100.84;5003633;28;20030;-70
2022/10/27 00:46:38;;;;;;;0.10;0.10;;;;;;;13.25;100.00;102097.81;4997731;28;20029;-71
2022/10/27 00:49:14;;;;;;;0.10;0.10;;;;;;;13.35;100.00;102105.16;5002615;28;20054;-71
2022/10/27 00:52:05;;;;;;;0.10;0.10;;;;;;;13.50;100.00;102105.97;5002186;28;20040;-70
2022/10/27 00:54:35;;;;;;;0.10;0.10;;;;;;;13.42;100.00;102108.31;5002203;28;20108;-69
2022/10/27 00:57:01;;;;;;;0.05;0.05;;;;;;;13.44;100.00;102113.63;5001359;28;20034;-69
2022/10/27 00:59:26;;;;;;;0.10;0.10;;;;;;;13.40;100.00;102110.22;5000475;28;20445;-69
2022/10/27 01:01:52;;;;;;;0.10;0.10;;;;;;;13.40;100.00;102114.78;5001454;28;20520;-69
2022/10/27 01:04:26;;;;;;;0.00;0.00;;;;;;;13.42;100.00;102121.81;4999090;28;20411;-69
2022/10/27 01:06:52;;;;;;;0.00;0.00;;;;;;;13.42;100.00;102118.28;4994266;28;20442;-70
2022/10/27 01:09:17;;;;;;;0.10;0.10;;;;;;;13.38;100.00;102109.47;4998152;28;20032;-69
2022/10/27 01:11:43;;;;;;;0.10;0.10;;;;;;;13.41;100.00;102116.53;4996873;28;20033;-71
2022/10/27 01:14:08;;;;;;;0.10;0.10;;;;;;;13.29;100.00;102102.88;4997476;28;20032;-72
2022/10/27 01:17:15;;;;;;;0.10;0.10;;;;;;;13.32;100.00;102118.03;4999134;28;20030;-71
2022/10/27 01:20:02;;;;;;;0.10;0.10;;;;;;;13.45;100.00;102126.16;4920683;29;20035;-70
2022/10/27 01:22:31;;;;;;;0.10;0.10;;;;;;;13.37;100.00;102113.16;4886993;29;20094;-70
2022/10/27 01:25:07;;;;;;;0.10;0.10;;;;;;;13.25;100.00;102095.97;4976170;28;20034;-69
2022/10/27 01:28:07;;;;;;;0.10;0.10;;;;;;;13.28;100.00;102114.66;5003460;28;20033;-69
2022/10/27 01:31:04;;;;;;;0.13;0.13;;;;;;;13.10;100.00;102102.44;5001880;28;20489;-70
2022/10/27 01:33:46;;;;;;;0.10;0.10;;;;;;;13.32;100.00;102113.47;4978326;28;20781;-72
2022/10/27 01:36:18;;;;;;;0.05;0.05;;;;;;;13.25;100.00;102114.84;4996084;28;20026;-70
2022/10/27 01:38:50;;;;;;;0.10;0.10;;;;;;;13.44;100.00;102110.94;5006026;28;20080;-69
2022/10/27 01:41:26;;;;;;;0.10;0.10;;;;;;;13.44;100.00;102116.34;4998080;28;20039;-69
2022/10/27 01:43:54;;;;;;;0.08;0.08;;;;;;;13.55;100.00;102123.66;5000035;28;20089;-69
2022/10/27 01:46:20;;;;;;;0.10;0.10;;;;;;;13.56;100.00;102130.78;5000275;28;20029;-70
2022/10/27 01:48:45;;;;;;;0.10;0.10;;;;;;;13.55;100.00;102116.44;4997814;28;20041;-70
2022/10/27 01:51:11;;;;;;;0.10;0.10;;;;;;;13.53;100.00;102131.84;4999384;28;20461;-70
2022/10/27 01:53:40;;;;;;;0.10;0.10;;;;;;;13.50;100.00;102127.56;5000424;28;20032;-70
2022/10/27 01:56:32;;;;;;;0.00;0.00;;;;;;;13.59;100.00;102127.88;4995645;28;20252;-72
2022/10/27 01:59:18;;;;;;;0.00;0.00;;;;;;;13.48;100.00;102105.22;4996959;28;20168;-71
2022/10/27 02:02:09;;;;;;;0.00;0.00;;;;;;;13.61;100.00;102113.31;5000962;28;20104;-69
2022/10/27 02:04:50;;;;;;;0.10;0.10;;;;;;;13.63;100.00;102119.47;4998179;28;20490;-71
2022/10/27 02:07:48;;;;;;;0.10;0.10;;;;;;;13.72;100.00;102125.19;5004625;28;20033;-70
2022/10/27 02:10:19;;;;;;;0.00;0.00;;;;;;;13.65;100.00;102117.50;4978146;28;20045;-69
2022/10/27 02:12:45;;;;;;;0.05;0.05;;;;;;;13.69;100.00;102111.91;4994606;28;20337;-72
2022/10/27 02:15:20;;;;;;;0.10;0.10;;;;;;;13.52;100.00;102102.31;4960652;28;1021892;-71
2022/10/27 02:17:46;;;;;;;0.00;0.00;;;;;;;13.56;100.00;102110.06;4988021;28;20040;-71
2022/10/27 02:20:20;;;;;;;0.00;0.00;;;;;;;13.74;100.00;102112.44;4996292;28;20025;-71
2022/10/27 02:22:48;;;;;;;0.10;0.10;;;;;;;13.56;100.00;102114.59;5013604;28;20033;-69
2022/10/27 02:25:14;;;;;;;0.10;0.10;;;;;;;13.60;100.00;102103.47;5014680;28;20037;-70
2022/10/27 02:27:43;;;;;;;0.10;0.10;;;;;;;13.61;100.00;102104.34;4998383;28;20631;-69
2022/10/27 02:30:09;;;;;;;0.10;0.10;;;;;;;13.68;100.00;102104.78;5013301;28;20033;-68
2022/10/27 02:32:34;;;;;;;0.10;0.10;;;;;;;13.60;100.00;102111.56;5003527;28;20025;-69
2022/10/27 02:35:00;;;;;;;0.00;0.00;;;;;;;13.61;100.00;102096.25;5001148;28;20472;-70
2022/10/27 02:37:38;;;;;;;0.10;0.10;;;;;;;13.67;100.00;102095.81;4995220;28;20460;-69
2022/10/27 02:40:05;;;;;;;0.10;0.10;;;;;;;13.69;100.00;102096.56;4996417;28;20468;-69
2022/10/27 02:42:30;;;;;;;0.10;0.10;;;;;;;13.73;100.00;102098.06;5013565;28;20515;-69
2022/10/27 02:44:55;;;;;;;0.00;0.00;;;;;;;13.59;100.00;102071.22;4986731;28;20030;-69
2022/10/27 02:47:21;;;;;;;0.00;0.00;;;;;;;13.68;100.00;102102.09;5002357;28;20029;-68
2022/10/27 02:49:46;;;;;;;0.00;0.00;;;;;;;13.71;100.00;102089.22;4984527;28;20453;-69
2022/10/27 02:52:12;;;;;;;0.10;0.10;;;;;;;13.65;100.00;102100.44;5000348;28;20036;-70
2022/10/27 02:54:38;;;;;;;0.10;0.10;;;;;;;13.69;100.00;102098.41;4998355;28;20074;-70
2022/10/27 02:57:03;;;;;;;0.05;0.05;;;;;;;13.69;100.00;102091.16;4996701;28;20513;-69
2022/10/27 02:59:28;;;;;;;0.10;0.10;;;;;;;13.56;100.00;102068.75;4996912;28;20041;-69
2022/10/27 03:01:54;;;;;;;0.00;0.00;;;;;;;13.73;100.00;102089.97;4994591;28;20041;-70
2022/10/27 03:04:19;;;;;;;0.10;0.10;;;;;;;13.59;100.00;102065.81;5000144;28;20429;-68
2022/10/27 03:06:44;;;;;;;0.10;0.10;;;;;;;13.55;100.00;102070.56;5000426;28;20088;-69
2022/10/27 03:09:10;;;;;;;0.10;0.10;;;;;;;13.59;100.00;102085.56;5001250;28;20029;-69
2022/10/27 03:11:35;;;;;;;0.00;0.00;;;;;;;13.58;100.00;102085.69;5001970;28;20135;-70
2022/10/27 03:14:00;;;;;;;0.10;0.10;;;;;;;13.44;100.00;102067.78;4995711;28;20064;-69
2022/10/27 03:16:25;;;;;;;0.08;0.08;;;;;;;13.74;100.00;102091.69;4997661;28;20156;-68
2022/10/27 03:18:51;;;;;;;0.08;0.08;;;;;;;13.65;100.00;102086.94;4998958;28;20034;-68
2022/10/27 03:21:16;;;;;;;0.10;0.10;;;;;;;13.58;100.00;102083.84;4998762;28;20034;-68
2022/10/27 03:23:41;;;;;;;0.00;0.00;;;;;;;13.34;100.00;102068.38;4995960;28;20067;-68
2022/10/27 03:26:07;;;;;;;0.10;0.10;;;;;;;13.25;100.00;102079.78;4999658;28;20022;-68
2022/10/27 03:28:34;;;;;;;0.10;0.10;;;;;;;12.99;100.00;102052.81;4998455;28;20056;-68
2022/10/27 03:31:03;;;;;;;0.00;0.00;;;;;;;13.03;100.00;102069.66;4999741;28;20026;-67
2022/10/27 03:33:28;;;;;;;0.08;0.08;;;;;;;13.09;100.00;102065.66;5013171;28;20030;-68
2022/10/27 03:35:54;;;;;;;0.10;0.10;;;;;;;13.03;100.00;102083.13;5001614;28;20500;-68
2022/10/27 03:38:19;;;;;;;0.10;0.10;;;;;;;13.09;100.00;102073.75;4999377;28;20030;-68
2022/10/27 03:40:44;;;;;;;0.10;0.10;;;;;;;12.98;100.00;102071.78;5000891;28;20465;-68
2022/10/27 03:43:10;;;;;;;0.10;0.10;;;;;;;12.91;100.00;102068.66;5012939;28;20112;-68
2022/10/27 03:45:35;;;;;;;0.10;0.10;;;;;;;12.83;100.00;102084.47;4995240;28;20026;-68
2022/10/27 03:48:06;;;;;;;0.10;0.10;;;;;;;12.47;100.00;102045.56;4996685;28;20022;-68
2022/10/27 03:50:31;;;;;;;0.10;0.10;;;;;;;12.53;100.00;102070.28;5012663;28;20781;-68
2022/10/27 03:52:57;;;;;;;0.00;0.00;;;;;;;12.44;100.00;102079.84;5005906;28;20038;-68
2022/10/27 03:55:22;;;;;;;0.03;0.03;;;;;;;12.41;100.00;102079.16;5000632;28;20052;-68
2022/10/27 03:57:48;;;;;;;0.00;0.00;;;;;;;12.36;100.00;102073.22;4998435;28;20057;-68
2022/10/27 04:00:14;;;;;;;0.10;0.10;;;;;;;12.37;100.00;102075.81;4994744;28;20384;-67
2022/10/27 04:02:39;;;;;;;0.00;0.00;;;;;;;12.39;100.00;102070.31;4993167;28;20076;-67
2022/10/27 04:05:05;;;;;;;0.10;0.10;;;;;;;12.32;100.00;102077.06;4996770;28;20389;-68
2022/10/27 04:07:30;;;;;;;0.00;0.00;;;;;;;12.27;100.00;102063.91;4998211;28;20346;-68
2022/10/27 04:09:55;;;;;;;0.10;0.10;;;;;;;12.29;100.00;102079.03;5000090;28;20022;-67
2022/10/27 04:12:20;;;;;;;0.10;0.10;;;;;;;12.21;100.00;102070.56;4999891;28;20030;-68
2022/10/27 04:14:47;;;;;;;0.10;0.10;;;;;;;12.21;100.00;102070.56;5015478;28;20117;-69
2022/10/27 04:17:12;;;;;;;0.00;0.00;;;;;;;12.17;100.00;102069.03;4996894;28;20038;-67
2022/10/27 04:19:38;;;;;;;0.10;0.10;;;;;;;12.17;100.00;102070.88;4999018;28;20790;-68
2022/10/27 04:22:03;;;;;;;0.10;0.10;;;;;;;12.13;100.00;102067.50;4996440;28;20365;-67
2022/10/27 04:24:28;;;;;;;0.10;0.10;;;;;;;12.09;100.00;102074.03;5000038;28;20030;-68
2022/10/27 04:26:54;;;;;;;0.10;0.10;;;;;;;11.94;100.00;102065.09;5001086;28;20060;-67
2022/10/27 04:29:19;;;;;;;0.00;0.00;;;;;;;11.98;100.00;102072.91;4997288;28;20422;-68
2022/10/27 04:31:44;;;;;;;0.00;0.00;;;;;;;11.80;100.00;102049.84;5002674;28;20026;-68
2022/10/27 04:34:09;;;;;;;0.08;0.08;;;;;;;11.89;100.00;102067.25;4996736;28;20053;-67
2022/10/27 04:36:35;;;;;;;0.10;0.10;;;;;;;11.86;100.00;102060.22;5004282;28;20032;-67
2022/10/27 04:39:00;;;;;;;0.10;0.10;;;;;;;11.98;100.00;102085.47;5003094;28;20380;-67
2022/10/27 04:41:25;;;;;;;0.08;0.08;;;;;;;11.82;100.00;102064.94;4986077;28;20067;-68
2022/10/27 04:43:51;;;;;;;0.10;0.10;;;;;;;11.89;100.00;102083.41;5001896;28;20093;-67
2022/10/27 04:46:16;;;;;;;0.00;0.00;;;;;;;11.80;100.00;102064.16;5009817;28;20041;-69
2022/10/27 04:48:41;;;;;;;0.10;0.10;;;;;;;11.88;100.00;102089.75;5000183;28;20029;-68
2022/10/27 04:51:07;;;;;;;0.10;0.10;;;;;;;11.79;100.00;102062.44;5001345;28;20037;-69
2022/10/27 04:53:32;;;;;;;0.10;0.10;;;;;;;11.96;100.00;102090.97;5000082;28;20498;-67
2022/10/27 04:55:57;;;;;;;0.10;0.10;;;;;;;11.94;100.00;102090.19;4980146;28;20465;-68
2022/10/27 04:58:23;;;;;;;0.10;0.10;;;;;;;11.89;100.00;102084.25;5005906;28;20079;-67
2022/10/27 05:00:48;;;;;;;0.00;0.00;;;;;;;11.84;100.00;102089.94;5000371;28;20053;-68
2022/10/27 05:03:14;;;;;;;0.10;0.10;;;;;;;11.84;100.00;102097.13;4999762;28;20034;-68
2022/10/27 05:05:39;;;;;;;0.00;0.00;;;;;;;11.81;100.00;102102.69;5005604;28;20033;-68
2022/10/27 05:08:04;;;;;;;0.00;0.00;;;;;;;11.80;100.00;102095.56;4998728;28;20108;-67
2022/10/27 05:10:31;;;;;;;0.00;0.00;;;;;;;11.80;100.00;102100.97;4995562;28;20032;-68
2022/10/27 05:12:57;;;;;;;0.00;0.00;;;;;;;11.77;100.00;102093.97;5000893;28;20112;-68
2022/10/27 05:15:22;;;;;;;0.10;0.10;;;;;;;11.75;100.00;102089.66;5002595;28;20143;-68
2022/10/27 05:17:48;;;;;;;0.10;0.10;;;;;;;11.76;100.00;102096.75;5000462;28;20172;-68
2022/10/27 05:20:13;;;;;;;0.10;0.10;;;;;;;11.70;100.00;102090.78;4995530;28;20029;-68
2022/10/27 05:22:39;;;;;;;0.00;0.00;;;;;;;11.81;100.00;102090.13;5000892;28;20026;-68
2022/10/27 05:25:05;;;;;;;0.10;0.10;;;;;;;11.80;100.00;102092.88;5004261;28;20025;-68
2022/10/27 05:27:31;;;;;;;0.10;0.10;;;;;;;11.81;100.00;102089.25;4996195;28;20030;-68
2022/10/27 05:29:57;;;;;;;0.10;0.10;;;;;;;11.76;100.00;102080.63;4999793;28;20053;-68
2022/10/27 05:32:22;;;;;;;0.00;0.00;;;;;;;11.85;100.00;102080.00;5000045;28;20066;-67
2022/10/27 05:34:47;;;;;;;0.10;0.10;;;;;;;11.73;100.00;102070.03;5003674;28;20029;-67
2022/10/27 05:37:12;;;;;;;0.10;0.10;;;;;;;11.79;100.00;102080.41;5005467;28;20025;-68
2022/10/27 05:39:38;;;;;;;0.00;0.00;;;;;;;11.74;100.00;102085.22;5000971;28;20108;-69
2022/10/27 05:42:03;;;;;;;0.00;0.00;;;;;;;11.75;100.00;102077.03;4998104;28;20397;-69
2022/10/27 05:44:28;;;;;;;0.10;0.10;;;;;;;11.78;100.00;102082.22;5000219;28;20044;-69
2022/10/27 05:46:54;;;;;;;0.08;0.08;;;;;;;11.65;100.00;102067.84;5008488;28;20032;-69
2022/10/27 05:49:19;;;;;;;0.00;0.00;;;;;;;11.72;100.00;102082.63;5000594;28;20120;-69
2022/10/27 05:51:45;;;;;;;0.10;0.10;;;;;;;11.68;100.00;102089.16;5001682;28;20025;-69
2022/10/27 05:54:10;;;;;;;0.05;0.05;;;;;;;11.68;100.00;102079.25;5002150;28;20030;-69
2022/10/27 05:56:36;;;;;;;0.10;0.10;;;;;;;11.72;100.00;102090.69;5000846;28;20057;-68
2022/10/27 05:59:01;;;;;;;0.10;0.10;;;;;;;11.69;100.00;102086.38;4998564;28;20033;-69
2022/10/27 06:01:26;;;;;;;0.10;0.10;;;;;;;11.67;100.00;102082.91;5000700;28;20644;-70
2022/10/27 06:03:52;;;;;;;0.10;0.10;;;;;;;11.77;100.00;102079.66;4997276;28;20049;-69
2022/10/27 06:06:17;;;;;;;0.10;0.10;;;;;;;11.67;100.00;102071.28;4996525;28;20045;-69
2022/10/27 06:08:42;;;;;;;0.10;0.10;;;;;;;11.70;100.00;102076.47;4996179;28;20025;-69
2022/10/27 06:11:07;;;;;;;0.10;0.10;;;;;;;11.78;100.00;102071.47;5001376;28;20092;-69
2022/10/27 06:13:33;;;;;;;0.10;0.10;;;;;;;11.79;100.00;102086.66;5005861;28;20058;-69
2022/10/27 06:15:58;;;;;;;0.08;0.08;;;;;;;11.81;100.00;102073.97;5003370;28;20412;-69
2022/10/27 06:18:23;;;;;;;0.10;0.10;;;;;;;11.84;100.00;102071.09;4999561;28;20073;-69
2022/10/27 06:20:49;;;;;;;0.10;0.10;;;;;;;11.71;100.00;102059.34;5000381;28;20188;-69
2022/10/27 06:23:14;;;;;;;0.10;0.10;;;;;;;11.80;100.00;102069.56;4994401;28;20037;-68
2022/10/27 06:25:39;;;;;;;0.00;0.00;;;;;;;11.88;100.00;102085.19;5004010;28;20057;-69
2022/10/27 06:28:05;;;;;;;0.10;0.10;;;;;;;11.94;100.00;102081.25;4996398;28;20072;-69
2022/10/27 06:30:30;;;;;;;0.10;0.10;;;;;;;11.87;100.00;102082.63;4999616;28;20117;-70
2022/10/27 06:32:55;;;;;;;0.10;0.10;;;;;;;11.97;100.00;102079.25;4999837;28;20156;-69
2022/10/27 06:35:21;;;;;;;0.10;0.10;;;;;;;12.05;100.00;102067.16;4999909;28;20378;-69
2022/10/27 06:37:46;;;;;;;0.00;0.00;;;;;;;12.03;100.00;102069.94;4997742;28;20466;-70
2022/10/27 06:40:13;;;;;;;0.10;0.10;;;;;;;12.04;100.00;102066.28;5002539;28;20277;-69
2022/10/27 06:42:39;;;;;;;0.00;0.00;;;;;;;11.91;100.00;102027.66;4996209;28;21126;-69
2022/10/27 06:45:05;;;;;;;0.05;0.05;;;;;;;12.08;100.00;102059.75;5000292;28;20486;-69
2022/10/27 06:47:30;;;;;;;0.03;0.03;;;;;;;12.17;100.00;102060.13;5001874;28;20034;-69
2022/10/27 06:49:55;;;;;;;0.00;0.00;;;;;;;12.15;100.00;102065.59;4992484;28;20046;-69
2022/10/27 06:52:21;;;;;;;0.10;0.10;;;;;;;12.11;100.00;102042.50;4998289;28;20033;-70
2022/10/27 06:54:46;;;;;;;0.10;0.10;;;;;;;12.17;100.00;102057.41;4999135;28;20038;-69
2022/10/27 06:57:11;;;;;;;0.20;0.20;;;;;;;12.06;100.00;102028.47;4998233;28;20526;-69
2022/10/27 06:59:37;;;;;;;0.10;0.10;;;;;;;12.20;100.00;102039.22;5003268;28;20421;-68
2022/10/27 07:02:03;;;;;;;0.10;0.10;;;;;;;12.34;100.00;102054.47;5004827;28;20112;-69
2022/10/27 07:04:28;;;;;;;0.10;0.10;;;;;;;12.27;100.00;102043.25;5001936;28;20112;-71
2022/10/27 07:06:54;;;;;;;0.10;0.10;;;;;;;12.40;100.00;102050.50;5011587;28;20433;-68
2022/10/27 07:09:19;;;;;;;0.10;0.10;;;;;;;12.37;100.00;102048.88;5001683;28;20026;-72
2022/10/27 07:11:44;;;;;;;0.10;0.10;;;;;;;12.33;100.00;102033.00;4998212;28;20065;-69
2022/10/27 07:14:10;;;;;;;0.10;0.10;;;;;;;12.43;100.00;102034.16;5006450;28;20374;-69
2022/10/27 07:16:35;;;;;;;0.10;0.10;;;;;;;12.45;100.00;102045.69;5004498;28;20033;-71
2022/10/27 07:19:01;;;;;;;0.10;0.10;;;;;;;12.51;100.00;102047.09;5002812;28;20390;-69
2022/10/27 07:21:26;;;;;;;0.00;0.00;;;;;;;12.54;100.00;102042.38;5000368;28;20033;-69
2022/10/27 07:23:52;;;;;;;0.10;0.10;;;;;;;12.56;100.00;102026.09;4987925;28;20113;-70
2022/10/27 07:26:17;;;;;;;0.00;0.00;;;;;;;12.64;100.00;102033.66;5004721;28;20069;-70
2022/10/27 07:28:42;;;;;;;0.10;0.10;;;;;;;12.68;100.00;102054.94;5003566;28;20109;-70
2022/10/27 07:31:08;;;;;;;0.10;0.10;;;;;;;12.90;100.00;102061.53;5014417;28;20033;-69
2022/10/27 07:33:33;;;;;;;0.10;0.10;;;;;;;12.80;100.00;102060.44;4999937;28;20045;-70
2022/10/27 07:35:58;;;;;;;0.10;0.10;;;;;;;12.77;100.00;102061.50;5002535;28;20064;-70
2022/10/27 07:38:23;;;;;;;0.10;0.10;;;;;;;12.77;100.00;102056.13;5008529;28;20416;-70
2022/10/27 07:40:49;;;;;;;0.10;0.10;;;;;;;12.87;100.00;102059.91;4996719;28;20029;-69
2022/10/27 07:43:14;;;;;;;0.10;0.10;;;;;;;12.79;100.00;102051.50;4997875;28;20057;-69
2022/10/27 07:45:41;;;;;;;0.08;0.08;;;;;;;12.86;100.00;102066.25;5019877;28;20571;-68
2022/10/27 07:48:11;;;;;;;0.10;0.10;;;;;;;12.92;100.00;102065.00;4998688;28;20386;-70
2022/10/27 07:50:36;;;;;;;0.10;0.10;;;;;;;13.05;100.00;102067.72;5002069;28;20041;-70
2022/10/27 07:53:02;;;;;;;0.32;0.10;;;;;;;13.09;100.00;102065.66;4998287;28;20398;-67
2022/10/27 07:55:28;;;;;;;0.00;0.00;;;;;;;13.12;100.00;102060.91;5005143;28;20763;-69
2022/10/27 07:58:02;;;;;;;0.00;0.00;;;;;;;13.21;100.00;102062.13;5000966;28;20040;-70
2022/10/27 08:00:28;;;;;;;0.10;0.10;;;;;;;13.36;100.00;102062.88;5004623;28;20048;-70
2022/10/27 08:02:54;;;;;;;0.00;0.00;;;;;;;13.29;100.00;102056.19;4996728;28;20069;-71
2022/10/27 08:05:20;;;;;;;0.10;0.10;;;;;;;13.62;100.00;102071.00;5003026;28;20152;-70
2022/10/27 08:07:45;;;;;;;0.10;0.10;;;;;;;13.67;100.00;102063.41;4997190;28;20030;-71
2022/10/27 08:10:10;;;;;;;0.10;0.10;;;;;;;13.88;100.00;102055.63;5001386;28;20059;-69
2022/10/27 08:12:41;;;;;;;0.10;0.10;;;;;;;14.07;100.00;102057.84;5002032;28;20126;-70
2022/10/27 08:15:08;;;;;;;0.10;0.10;;;;;;;14.03;100.00;102036.59;5004815;28;20462;-70
2022/10/27 08:17:33;;;;;;;0.10;0.10;;;;;;;14.26;100.00;102059.19;4991787;28;20537;-69
2022/10/27 08:19:58;;;;;;;0.10;0.10;;;;;;;14.35;100.00;102053.09;5001293;28;20026;-71
2022/10/27 08:22:24;;;;;;;0.10;0.10;;;;;;;14.27;100.00;102024.94;4997080;28;20056;-69
2022/10/27 08:24:49;;;;;;;0.00;0.00;;;;;;;14.50;100.00;102048.38;5008844;28;20030;-69
2022/10/27 08:27:14;;;;;;;0.10;0.10;;;;;;;14.57;100.00;102053.31;4998637;28;20030;-72
2022/10/27 08:29:40;;;;;;;0.00;0.00;;;;;;;14.62;100.00;102054.69;5016130;28;20068;-71
2022/10/27 08:32:06;;;;;;;0.10;0.10;;;;;;;14.57;100.00;102059.59;5005943;28;20112;-71
2022/10/27 08:34:31;;;;;;;0.10;0.10;;;;;;;14.72;100.00;102060.28;5003911;28;20120;-72
2022/10/27 08:36:56;;;;;;;0.10;0.10;;;;;;;14.76;100.00;102053.69;5007567;28;20021;-70
2022/10/27 08:39:21;;;;;;;0.00;0.00;;;;;;;14.88;100.00;102053.69;5002192;28;20099;-70
2022/10/27 08:42:11;;;;;;;0.00;0.00;;;;;;;14.99;100.00;102054.59;5001688;28;20026;-69
2022/10/27 08:44:42;;;;;;;0.00;0.00;;;;;;;15.16;100.00;102044.31;4997818;28;20033;-70
2022/10/27 08:47:16;;;;;;;0.10;0.10;;;;;;;15.34;100.00;102052.84;4994927;28;20072;-69
2022/10/27 08:49:48;;;;;;;0.00;0.00;;;;;;;15.39;100.00;102038.94;5000144;28;20033;-69
2022/10/27 08:52:27;;;;;;;0.03;0.03;;;;;;;15.34;100.00;102031.19;4996407;28;20030;-70
2022/10/27 08:54:56;;;;;;;0.00;0.00;;;;;;;15.64;100.00;102018.84;5015386;28;20065;-70
2022/10/27 08:57:27;;;;;;;0.00;0.00;;;;;;;15.87;100.00;102030.56;4996506;28;20628;-68
2022/10/27 08:59:53;;;;;;;0.08;0.08;;;;;;;16.09;100.00;102022.53;5002071;28;20029;-70
2022/10/27 09:02:50;;;;;;;0.10;0.10;;;;;;;16.29;100.00;102018.16;4998151;28;20037;-70
2022/10/27 09:05:28;;;;;;;0.00;0.00;;;;;;;16.49;100.00;102027.31;5001188;28;20060;-69
2022/10/27 09:08:31;;;;;;;0.10;0.10;;;;;;;16.38;100.00;102028.22;5001461;28;20037;-70
2022/10/27 09:11:06;;;;;;;0.00;0.00;;;;;;;16.55;100.00;102029.53;5001785;28;20034;-72
2022/10/27 09:13:50;;;;;;;0.10;0.10;;;;;;;16.54;100.00;102005.25;5008385;28;20030;-74
2022/10/27 09:16:28;;;;;;;0.00;0.00;;;;;;;16.83;100.00;102019.03;5002511;28;20044;-69
2022/10/27 09:18:57;;;;;;;0.00;0.00;;;;;;;16.84;100.00;102020.75;4994322;28;20037;-71
2022/10/27 09:21:23;;;;;;;0.00;0.00;;;;;;;17.13;98.27;102016.53;4991528;28;20442;-70
2022/10/27 09:23:54;;;;;;;0.00;0.00;;;;;;;17.22;97.64;102011.16;4997258;28;20097;-73
2022/10/27 09:26:25;;;;;;;0.03;0.03;;;;;;;17.40;97.17;102002.38;5015843;28;20036;-71
2022/10/27 09:28:52;;;;;;;0.00;0.00;;;;;;;17.45;98.80;102002.84;5010471;28;20072;-70
2022/10/27 09:31:33;;;;;;;0.10;0.10;;;;;;;17.39;96.50;101989.81;4999222;28;20032;-74
2022/10/27 09:34:03;;;;;;;0.00;0.00;;;;;;;17.56;98.04;101966.59;5001426;28;20135;-71
2022/10/27 09:36:29;;;;;;;0.00;0.00;;;;;;;17.77;96.52;101981.94;5014527;28;20634;-71
2022/10/27 09:38:54;;;;;;;0.00;0.00;;;;;;;17.82;95.56;101983.22;5011106;28;20030;-71
2022/10/27 09:41:19;;;;;;;0.00;0.00;;;;;;;17.93;95.80;101973.25;4994344;28;20029;-71
2022/10/27 09:43:54;;;;;;;0.00;0.00;;;;;;;18.01;92.99;101997.03;5011640;28;20029;-72
2022/10/27 09:46:23;;;;;;;0.10;0.10;;;;;;;18.12;93.77;101977.88;4997808;28;20038;-71
2022/10/27 09:48:55;;;;;;;0.00;0.00;;;;;;;18.39;92.03;101982.59;4996821;28;20026;-74
2022/10/27 09:51:27;;;;;;;0.00;0.00;;;;;;;18.45;92.77;101956.69;4996756;28;20057;-70
2022/10/27 09:53:53;;;;;;;0.00;0.00;;;;;;;18.54;92.33;101974.03;4995468;28;20068;-71
2022/10/27 09:56:24;;;;;;;0.00;0.00;;;;;;;18.37;93.01;101973.72;4995304;28;20187;-69
2022/10/27 09:58:57;;;;;;;0.00;0.00;;;;;;;18.30;91.48;101972.56;4995571;28;20025;-70
2022/10/27 10:01:58;;;;;;;0.00;0.00;;;;;;;18.30;91.95;101964.41;4996558;28;20411;-70
2022/10/27 10:04:41;;;;;;;0.00;0.00;;;;;;;18.66;90.35;101972.84;4992585;28;20040;-69
2022/10/27 10:07:08;;;;;;;0.00;0.00;;;;;;;18.77;89.34;101971.81;5006799;28;20035;-70
2022/10/27 10:09:40;;;;;;;0.00;0.00;;;;;;;18.55;91.68;101948.53;4995623;28;20326;-70
2022/10/27 10:12:21;;;;;;;0.00;0.00;;;;;;;18.91;84.31;101951.47;5003409;28;20033;-72
2022/10/27 10:14:46;;;;;;;0.00;0.00;;;;;;;19.31;82.85;101957.66;5000354;28;20113;-72
2022/10/27 10:17:21;;;;;;;0.10;0.10;;;;;;;19.69;82.75;101952.16;4998552;28;20113;-72
2022/10/27 10:19:47;;;;;;;0.00;0.00;;;;;;;20.01;80.92;101976.19;5014507;28;20794;-74
2022/10/27 10:22:22;;;;;;;0.00;0.00;;;;;;;20.13;78.78;101971.38;5002742;28;20029;-72
2022/10/27 10:24:47;;;;;;;0.00;0.00;;;;;;;20.35;77.97;101942.78;4999866;28;20335;-70
2022/10/27 10:27:23;;;;;;;0.05;0.05;;;;;;;20.75;77.84;101962.34;5000396;28;20509;-71
2022/10/27 10:29:49;;;;;;;0.00;0.00;;;;;;;20.82;74.76;101958.00;4981641;28;20029;-70
2022/10/27 10:32:30;;;;;;;0.00;0.00;;;;;;;20.72;75.51;101938.13;5005838;28;20515;-71
2022/10/27 10:34:57;;;;;;;0.00;0.00;;;;;;;20.97;76.03;101928.25;5000666;28;20022;-73
2022/10/27 10:37:29;;;;;;;0.00;0.00;;;;;;;20.82;74.02;101938.91;4995238;28;21018;-68
2022/10/27 10:40:15;;;;;;;0.00;0.00;;;;;;;20.40;75.30;101912.31;4997796;28;20046;-70
2022/10/27 10:42:45;;;;;;;0.00;0.00;;;;;;;19.93;76.47;101921.63;5004426;28;20057;-70
2022/10/27 10:45:18;;;;;;;0.00;0.00;;;;;;;19.87;76.57;101927.66;5002778;28;22069;-71
2022/10/27 10:47:47;;;;;;;0.00;0.00;;;;;;;19.83;78.28;101932.56;5002960;28;20025;-72
2022/10/27 10:50:13;;;;;;;0.00;0.00;;;;;;;19.59;76.38;101906.78;5003958;28;20490;-70
2022/10/27 10:52:39;;;;;;;0.00;0.00;;;;;;;19.89;76.91;101931.13;5002863;28;20092;-70
2022/10/27 10:55:24;;;;;;;0.08;0.08;;;;;;;19.86;79.29;101932.28;5003159;28;20022;-71
2022/10/27 10:57:52;;;;;;;0.00;0.00;;;;;;;19.99;78.83;101937.38;5000491;28;20034;-70
2022/10/27 11:00:19;;;;;;;0.00;0.00;;;;;;;19.54;79.46;101944.50;5000394;28;20032;-71
2022/10/27 11:03:03;;;;;;;0.00;0.00;;;;;;;19.48;80.79;101905.09;5002322;28;20030;-69
2022/10/27 11:05:31;;;;;;;0.00;0.00;;;;;;;19.74;78.48;101931.59;4988644;28;20030;-69
2022/10/27 11:07:57;;;;;;;0.00;0.00;;;;;;;19.60;80.80;101911.19;5005920;28;20057;-68
2022/10/27 11:10:29;;;;;;;0.00;0.00;;;;;;;20.01;80.70;101921.69;4986807;28;20062;-71
2022/10/27 11:13:05;;;;;;;0.00;0.00;;;;;;;20.20;77.05;101920.66;4983529;28;20037;-72
2022/10/27 11:15:39;;;;;;;0.00;0.00;;;;;;;20.21;75.45;101894.28;5000004;28;20382;-71
2022/10/27 11:18:21;;;;;;;0.10;0.10;;;;;;;20.26;79.09;101908.28;5015968;28;20054;-70
2022/10/27 11:20:54;;;;;;;0.00;0.00;;;;;;;20.28;78.79;101905.41;4996683;28;20040;-70
2022/10/27 11:23:25;;;;;;;0.05;0.05;;;;;;;20.33;78.77;101898.44;4994284;28;20026;-70
2022/10/27 11:25:52;;;;;;;0.10;0.10;;;;;;;20.40;78.51;101892.38;5001483;28;20038;-70
2022/10/27 11:28:31;;;;;;;0.00;0.00;;;;;;;20.17;76.35;101861.00;5002119;28;20088;-73